Announcement

Collapse
No announcement yet.

Colgan DHC-8 crashed in Buffalo

Collapse
X
 
  • Filter
  • Time
  • Show
Clear All
new posts

  • Colgan DHC-8 crashed in Buffalo

    Seem like a DHC-8 has crashed in Buffalo,
    http://www.buffalonews.com/home/story/577959.html
    Rumor is that this aircraft was delivered last april.
    "The real CEO of the 787 project is named Potemkin"

  • #2
    Do we have any confirmation at all? One of my very good friends is a pilot for Colgan. I pray that he was not involved. As a matter of prayer, I hope that this is nothing more than a hoax, or that the reporter is severely misinformed and over-exaggerated the report. I hope that we can have another miracle - no fatalities.
    Whatever is necessary, is never unwise.

    Comment


    • #3
      Ok, flightaware.com is showing that the aircraft did not arrive to BUF.

      http://flightaware.com/live/flight/CJC3407

      The newspaper just updated it's count stating that 49 passengers are confirmed dead.
      Whatever is necessary, is never unwise.

      Comment


      • #4
        Link to live coverage.

        http://bit.ly/esooo
        Follow me on Twitter! www.twitter.com/flyingphotog

        Comment


        • #5
          Originally posted by AA 1818 View Post
          Ok, flightaware.com is showing that the aircraft did not arrive to BUF.

          http://flightaware.com/live/flight/CJC3407

          The newspaper just updated it's count stating that 49 passengers are confirmed dead.
          Seem like 44 passengers, 4 crew and one person on the ground, unfortunatly it wasn´t a false rumor...;(
          "The real CEO of the 787 project is named Potemkin"

          Comment


          • #6


            View Larger Map

            A is crash site
            AirDisaster.com Forum Member 2004-2008

            Originally posted by orangehuggy
            the most dangerous part of a flight is not the take off or landing anymore, its when a flight crew member goes to the toilet

            Comment


            • #7
              Past few METARS at BUF, not good...
              KBUF 130505Z COR 25012KT 4SM -SN BR BKN008 BKN015 OVC021 01/00 A2983 RMK AO2 CIG 005V011 P0000

              KBUF 130458Z 25012KT 3SM -FZRA BR BKN008 OVC015 01/00 A2983 RMK AO2 FZRAB58SNE58 CIG 005V012 P0000
              KBUF 130454Z 26014KT 3SM -SN BR SCT011 OVC021 01/00 A2983 RMK AO2 SLP109 P0004 T00060000 401060000
              KBUF 130354Z 24011KT 3SM -SN BR SCT011 OVC021 01/M01 A2981 RMK AO2 SLP103 P0002 T00061006
              RIP to all on board

              Comment


              • #8
                From the ATC tapes it seem like it was a female pilot, this is the mentioned plane
                http://www.airliners.net/photo/Conti...next_id=NEXTID
                Two pics here on JP,
                http://www.jetphotos.net/viewphoto.p...6478793&nseq=3
                the most recent one.
                "The real CEO of the 787 project is named Potemkin"

                Comment


                • #9
                  ATC is already archived here...

                  http://archive-server.liveatc.net/kb...2009-0300Z.mp3

                  Comment


                  • #10
                    someone posted a home video of the crash aftermath

                    http://www.youtube.com/watch?v=uPoqhEHKNQk

                    yes i am a boeing fan, and i know thats a airbus, haha

                    Comment


                    • #11
                      The aircraft was N200WQ (msn 4200)

                      [photoid=6478793]
                      Trump is an idiot!
                      Vote Democrats!!

                      Comment


                      • #12
                        http://www.jetphotos.net/census/airc...nid=DHC-8-4200

                        Comment


                        • #13
                          On the atc recording there is extensive talk of ice after the crash.

                          Comment


                          • #14
                            Holy heck, this hits way too close to home (literally). I'm only a mile, mile and a half at best away from the crash. Thoughts and prayers to everyone.

                            Fly from Buffalo!

                            Non-Stop flights to:

                            JFK, LGA, BOS, PIT, PHL, IAD, DCA, BWI, CLT, PHX, LAS, EWR, ATL, CVG, DTW, MSP, ORD, MDW, MCO, TPA, BDL, ALB, DFW, CLE, FLL, RSW, ROC

                            Comment


                            • #15
                              Rip
                              You've got to try to find what's right before your eyes-Finger Eleven


                              Comment

                              Working...
                              X